createdAt,value
2022-12-14T00:01:41.725Z,24.90
2022-12-14T00:04:12.146Z,23.87
2022-12-14T00:06:39.182Z,24.73
2022-12-14T00:09:06.412Z,23.73
2022-12-14T00:11:34.555Z,25.10
2022-12-14T00:14:03.239Z,25.13
2022-12-14T00:16:33.091Z,26.93
2022-12-14T00:19:01.928Z,25.33
2022-12-14T00:21:29.381Z,24.57
2022-12-14T00:23:58.983Z,25.87
2022-12-14T00:26:33.867Z,25.60
2022-12-14T00:29:02.594Z,26.37
2022-12-14T00:31:31.866Z,25.50
2022-12-14T00:33:59.412Z,23.87
2022-12-14T00:36:26.499Z,25.33
2022-12-14T00:38:53.557Z,25.87
2022-12-14T00:41:20.640Z,26.47
2022-12-14T00:43:49.466Z,24.40
2022-12-14T00:46:17.111Z,26.50
2022-12-14T00:48:44.362Z,26.07
2022-12-14T00:51:11.489Z,26.97
2022-12-14T00:53:38.549Z,26.17
2022-12-14T00:56:08.767Z,26.03
2022-12-14T00:58:36.050Z,25.77
2022-12-14T01:01:05.855Z,25.73
2022-12-14T01:03:33.675Z,24.63
2022-12-14T01:06:01.544Z,27.27
2022-12-14T01:08:35.749Z,25.87
2022-12-14T01:11:07.772Z,25.37
2022-12-14T01:13:36.479Z,25.17
2022-12-14T01:16:14.687Z,25.83
2022-12-14T01:18:43.275Z,27.80
2022-12-14T01:21:19.107Z,27.33
2022-12-14T01:23:47.833Z,26.03
2022-12-14T01:26:16.865Z,28.53
2022-12-14T01:28:44.731Z,29.27
2022-12-14T01:31:14.725Z,28.30
2022-12-14T01:33:42.404Z,28.00
2022-12-14T01:36:12.234Z,26.30
2022-12-14T01:38:39.442Z,27.23
2022-12-14T01:41:07.767Z,27.13
2022-12-14T01:43:52.623Z,27.70
2022-12-14T01:46:35.987Z,26.47
2022-12-14T01:49:15.088Z,25.47
2022-12-14T01:51:48.096Z,26.97
2022-12-14T01:54:16.205Z,28.87
2022-12-14T01:56:44.946Z,26.60
2022-12-14T01:59:18.467Z,29.10
2022-12-14T02:01:46.607Z,26.90
2022-12-14T02:04:17.444Z,26.40
2022-12-14T02:06:46.275Z,29.37
2022-12-14T02:09:18.000Z,27.00
2022-12-14T02:12:19.157Z,25.20
2022-12-14T02:14:47.520Z,29.70
2022-12-14T02:17:16.004Z,27.73
2022-12-14T02:19:49.435Z,28.40
2022-12-14T02:22:52.479Z,25.97
2022-12-14T02:26:01.545Z,26.03
2022-12-14T02:29:23.651Z,28.07
2022-12-14T02:32:17.863Z,27.03
2022-12-14T02:35:25.595Z,28.60
2022-12-14T02:38:27.286Z,26.93
2022-12-14T02:41:39.874Z,28.03
2022-12-14T02:44:49.089Z,27.77
2022-12-14T02:47:32.501Z,27.43
2022-12-14T02:50:22.255Z,26.27
2022-12-14T02:53:03.659Z,26.37
2022-12-14T02:55:48.886Z,28.13
2022-12-14T02:58:48.968Z,27.40
2022-12-14T03:01:19.996Z,28.47
2022-12-14T03:03:47.156Z,26.07
2022-12-14T03:06:30.547Z,28.50
2022-12-14T03:09:07.942Z,29.43
2022-12-14T03:11:46.052Z,29.40
2022-12-14T03:14:41.778Z,29.63
2022-12-14T03:17:19.392Z,29.07
2022-12-14T03:20:13.143Z,26.93
2022-12-14T03:22:46.611Z,31.20
2022-12-14T03:25:22.274Z,28.53
2022-12-14T03:27:59.500Z,28.97
2022-12-14T03:30:58.064Z,27.33
2022-12-14T03:33:21.237Z,30.00
2022-12-14T03:36:34.622Z,26.83
2022-12-14T03:39:04.543Z,28.27
2022-12-14T03:42:42.839Z,29.33
2022-12-14T03:48:38.444Z,28.50
2022-12-14T04:00:11.115Z,31.33
2022-12-14T04:03:07.400Z,30.37
2022-12-14T04:09:01.463Z,27.90
2022-12-14T04:11:55.119Z,28.50
2022-12-14T04:14:47.130Z,31.63
2022-12-14T04:17:38.691Z,29.73
2022-12-14T04:20:21.071Z,29.60
2022-12-14T04:22:55.506Z,29.03
2022-12-14T04:25:49.466Z,29.60
2022-12-14T04:28:42.305Z,29.40
2022-12-14T04:31:13.239Z,29.20
2022-12-14T04:33:46.885Z,29.10
2022-12-14T04:36:24.400Z,30.00
2022-12-14T04:38:58.905Z,28.07
2022-12-14T04:41:32.696Z,28.00
2022-12-14T04:44:04.452Z,28.70
2022-12-14T04:46:37.568Z,29.30
2022-12-14T04:49:20.914Z,28.63
2022-12-14T04:52:39.690Z,29.20
2022-12-14T04:55:23.263Z,29.60
2022-12-14T04:58:19.955Z,27.70
2022-12-14T05:01:34.464Z,28.50
2022-12-14T05:04:21.802Z,29.40
2022-12-14T05:07:18.319Z,29.57
2022-12-14T05:10:10.354Z,30.03
2022-12-14T05:12:50.264Z,27.57
2022-12-14T05:15:25.121Z,30.80
2022-12-14T05:17:53.021Z,31.60
2022-12-14T05:20:22.545Z,29.50
2022-12-14T05:22:50.182Z,31.27
2022-12-14T05:25:17.682Z,29.23
2022-12-14T05:27:45.049Z,33.10
2022-12-14T05:30:13.042Z,30.80
2022-12-14T05:32:40.476Z,29.30
2022-12-14T05:35:08.920Z,30.57
2022-12-14T05:37:36.074Z,30.97
2022-12-14T05:40:03.229Z,32.73
2022-12-14T05:42:31.458Z,35.07
2022-12-14T05:44:58.668Z,29.73
2022-12-14T05:47:27.285Z,33.63
2022-12-14T05:49:54.356Z,34.80
2022-12-14T05:52:24.245Z,31.80
2022-12-14T05:54:51.332Z,29.80
2022-12-14T05:57:18.480Z,31.57
2022-12-14T05:59:45.566Z,33.00
2022-12-14T06:02:12.792Z,30.33
2022-12-14T06:04:40.024Z,31.17
2022-12-14T06:07:10.157Z,32.30
2022-12-14T06:09:37.256Z,30.57
2022-12-14T06:12:04.594Z,30.37
2022-12-14T06:14:31.654Z,30.33
2022-12-14T06:16:58.744Z,29.00
2022-12-14T06:19:25.815Z,32.07
2022-12-14T06:21:53.048Z,29.63
2022-12-14T06:24:20.078Z,31.17
2022-12-14T06:26:47.190Z,31.07
2022-12-14T06:29:16.735Z,30.07
2022-12-14T06:31:44.146Z,31.80
2022-12-14T06:34:11.795Z,31.27
2022-12-14T06:36:41.586Z,32.53
2022-12-14T06:39:14.504Z,34.47
2022-12-14T06:41:41.980Z,33.10
2022-12-14T06:44:12.557Z,37.43
2022-12-14T06:46:40.024Z,33.17
2022-12-14T06:49:08.027Z,32.20
2022-12-14T06:51:41.560Z,29.60
2022-12-14T06:54:11.456Z,29.60
2022-12-14T06:56:38.893Z,31.83
2022-12-14T06:59:06.382Z,30.87
2022-12-14T07:01:33.658Z,30.67
2022-12-14T07:04:00.932Z,31.20
2022-12-14T07:06:32.949Z,31.77
2022-12-14T07:09:00.865Z,30.73
2022-12-14T07:11:29.374Z,34.10
2022-12-14T07:13:57.017Z,34.63
2022-12-14T07:16:26.353Z,35.57
2022-12-14T07:18:54.895Z,37.08
2022-12-14T07:21:23.071Z,35.00
2022-12-14T07:23:52.602Z,37.20
2022-12-14T07:26:27.660Z,37.23
2022-12-14T07:28:55.187Z,37.07
2022-12-14T07:31:25.742Z,36.97
2022-12-14T07:33:58.815Z,36.33
2022-12-14T07:36:28.194Z,34.40
2022-12-14T07:38:56.046Z,36.37
2022-12-14T07:41:25.938Z,36.87
2022-12-14T07:43:55.299Z,38.17
2022-12-14T07:46:24.732Z,42.77
2022-12-14T07:48:54.629Z,38.20
2022-12-14T07:51:31.226Z,43.43
2022-12-14T07:53:59.455Z,42.40
2022-12-14T07:56:29.423Z,36.87
2022-12-14T07:58:58.187Z,36.67
2022-12-14T08:01:28.607Z,37.23
2022-12-14T08:04:09.729Z,38.87
2022-12-14T08:06:38.211Z,40.00
2022-12-14T08:09:06.969Z,36.40
2022-12-14T08:11:34.887Z,37.93
2022-12-14T08:14:04.665Z,39.67
2022-12-14T08:16:32.603Z,36.63
2022-12-14T08:19:00.933Z,35.73
2022-12-14T08:21:29.027Z,37.27
2022-12-14T08:23:57.318Z,36.73
2022-12-14T08:26:31.542Z,35.40
2022-12-14T08:29:02.334Z,36.27
2022-12-14T08:31:30.141Z,35.93
2022-12-14T08:33:59.604Z,34.47
2022-12-14T08:36:29.637Z,40.27
2022-12-14T08:39:01.969Z,34.13
2022-12-14T08:41:29.774Z,34.13
2022-12-14T08:43:59.483Z,34.87
2022-12-14T08:46:28.943Z,32.87
2022-12-14T08:48:57.168Z,32.90
2022-12-14T08:51:25.640Z,33.90
2022-12-14T08:53:53.654Z,34.20
2022-12-14T08:56:23.943Z,37.10
2022-12-14T08:58:51.225Z,38.53
2022-12-14T09:01:30.289Z,34.80
2022-12-14T09:04:03.639Z,35.60
2022-12-14T09:06:31.260Z,36.07
2022-12-14T09:08:58.566Z,37.50
2022-12-14T09:11:25.709Z,34.73
2022-12-14T09:13:58.261Z,34.30
2022-12-14T09:16:28.829Z,39.10
2022-12-14T09:18:56.155Z,34.67
2022-12-14T09:21:24.172Z,33.67
2022-12-14T09:23:57.318Z,34.70
2022-12-14T09:26:26.714Z,35.73
2022-12-14T09:28:55.843Z,34.93
2022-12-14T09:31:25.560Z,37.87
2022-12-14T09:33:53.144Z,36.20
2022-12-14T09:36:26.620Z,32.80
2022-12-14T09:38:58.065Z,34.70
2022-12-14T09:42:00.583Z,29.83
2022-12-14T09:45:10.130Z,37.43
2022-12-14T09:48:07.465Z,31.97
2022-12-14T09:50:35.108Z,31.73
2022-12-14T09:53:07.427Z,33.63
2022-12-14T09:55:42.622Z,35.67
2022-12-14T09:58:29.039Z,33.27
2022-12-14T10:01:37.006Z,36.20
2022-12-14T10:04:50.434Z,33.90
2022-12-14T10:07:55.186Z,33.67
2022-12-14T10:10:43.578Z,36.30
2022-12-14T10:13:46.162Z,35.50
2022-12-14T10:16:25.343Z,36.17
2022-12-14T10:19:43.778Z,38.50
2022-12-14T10:22:24.698Z,32.33
2022-12-14T10:25:06.475Z,34.93
2022-12-14T10:30:20.547Z,35.23
2022-12-14T10:32:56.417Z,31.43
2022-12-14T10:35:43.725Z,31.17
2022-12-14T10:38:32.330Z,34.17
2022-12-14T10:41:07.198Z,32.13
2022-12-14T10:44:27.358Z,34.07
2022-12-14T10:47:30.255Z,35.13
2022-12-14T10:50:34.434Z,34.33
2022-12-14T10:53:05.948Z,34.13
2022-12-14T10:55:39.243Z,32.20
2022-12-14T10:58:07.096Z,34.27
2022-12-14T11:00:38.762Z,34.03
2022-12-14T11:03:15.667Z,36.70
2022-12-14T11:06:10.007Z,34.70
2022-12-14T11:08:48.019Z,31.27
2022-12-14T11:11:24.379Z,32.00
2022-12-14T11:14:16.160Z,34.77
2022-12-14T11:16:43.410Z,36.43
2022-12-14T11:19:19.183Z,34.33
2022-12-14T11:21:50.084Z,34.00
2022-12-14T11:24:28.544Z,33.30
2022-12-14T11:27:01.171Z,34.67
2022-12-14T11:29:32.985Z,34.77
2022-12-14T11:32:00.804Z,33.10
2022-12-14T11:34:39.160Z,36.10
2022-12-14T11:37:26.277Z,34.73
2022-12-14T11:40:00.047Z,35.90
2022-12-14T11:42:28.308Z,36.57
2022-12-14T11:44:57.351Z,34.67
2022-12-14T11:47:29.331Z,35.20
2022-12-14T11:49:58.009Z,36.40
2022-12-14T11:52:40.005Z,36.63
2022-12-14T11:55:23.052Z,34.20
2022-12-14T11:57:57.458Z,35.77
2022-12-14T12:00:46.813Z,40.67
2022-12-14T12:03:36.792Z,36.90
2022-12-14T12:06:07.299Z,36.67
2022-12-14T12:08:41.009Z,37.30
2022-12-14T12:11:20.962Z,38.27
2022-12-14T12:13:52.524Z,40.20
2022-12-14T12:16:26.922Z,38.17
2022-12-14T12:19:20.178Z,37.13
2022-12-14T12:21:48.345Z,37.13
2022-12-14T12:24:30.615Z,41.40
2022-12-14T12:27:01.180Z,40.40
2022-12-14T12:29:57.693Z,35.43
2022-12-14T12:32:41.145Z,36.07
2022-12-14T12:35:17.616Z,37.67
2022-12-14T12:37:58.891Z,34.90
2022-12-14T12:40:57.617Z,35.10
2022-12-14T12:43:38.197Z,38.57
2022-12-14T12:46:13.742Z,36.70
2022-12-14T12:49:04.201Z,36.23
2022-12-14T12:51:39.620Z,36.33
2022-12-14T12:54:12.272Z,35.93
2022-12-14T12:56:56.074Z,107.30
2022-12-14T12:59:48.668Z,35.43
2022-12-14T13:02:33.480Z,35.90
2022-12-14T13:05:37.308Z,37.13
2022-12-14T13:08:02.337Z,39.47
2022-12-14T13:10:33.183Z,38.93
2022-12-14T13:13:27.367Z,37.93
2022-12-14T13:16:13.466Z,40.20
2022-12-14T13:19:02.060Z,36.77
2022-12-14T13:21:37.725Z,40.23
2022-12-14T13:24:06.811Z,39.13
2022-12-14T13:27:17.152Z,40.00
2022-12-14T13:30:23.799Z,38.90
2022-12-14T13:33:27.705Z,36.30
2022-12-14T13:36:45.808Z,40.23
2022-12-14T13:39:52.018Z,45.40
2022-12-14T13:42:52.059Z,39.57
2022-12-14T13:45:24.032Z,41.67
2022-12-14T13:47:55.485Z,37.70
2022-12-14T13:50:52.898Z,39.90
2022-12-14T13:53:42.461Z,38.87
2022-12-14T13:56:18.317Z,36.70
2022-12-14T13:58:48.706Z,41.67
2022-12-14T14:02:06.917Z,45.30
2022-12-14T14:04:35.867Z,35.93
2022-12-14T14:07:39.089Z,39.73
2022-12-14T14:10:26.900Z,35.27
2022-12-14T14:12:54.374Z,43.43
2022-12-14T14:15:51.958Z,39.10
2022-12-14T14:18:30.739Z,38.67
2022-12-14T14:22:22.186Z,64.20
2022-12-14T14:25:38.252Z,39.47
2022-12-14T14:28:09.962Z,39.27
2022-12-14T14:30:42.230Z,40.70
2022-12-14T14:33:55.017Z,39.77
2022-12-14T14:36:33.432Z,46.50
2022-12-14T14:39:02.981Z,42.10
2022-12-14T14:41:52.552Z,39.90
2022-12-14T14:44:42.010Z,39.53
2022-12-14T14:47:37.009Z,39.80
2022-12-14T14:50:37.215Z,36.63
2022-12-14T14:53:25.300Z,36.67
2022-12-14T14:56:26.172Z,48.83
2022-12-14T14:59:39.367Z,41.57
2022-12-14T15:02:33.797Z,51.50
2022-12-14T15:07:49.907Z,44.93
2022-12-14T15:10:38.451Z,41.90
2022-12-14T15:13:32.925Z,42.70
2022-12-14T15:16:00.352Z,37.83
2022-12-14T15:18:32.214Z,36.67
2022-12-14T15:21:13.732Z,41.43
2022-12-14T15:23:49.596Z,36.97
2022-12-14T15:26:28.926Z,32.97
2022-12-14T15:29:00.493Z,36.40
2022-12-14T15:31:39.957Z,33.97
2022-12-14T15:34:07.915Z,37.50
2022-12-14T15:36:42.272Z,39.03
2022-12-14T15:39:40.199Z,37.40
2022-12-14T15:42:13.983Z,38.40
2022-12-14T15:44:50.150Z,36.40
2022-12-14T15:47:32.385Z,37.77
2022-12-14T15:50:27.526Z,37.80
2022-12-14T15:53:04.312Z,42.43
2022-12-14T15:55:41.759Z,39.47
2022-12-14T15:58:28.301Z,34.50
2022-12-14T16:00:59.248Z,42.10
2022-12-14T16:03:38.116Z,34.37
2022-12-14T16:06:06.404Z,41.23
2022-12-14T16:08:36.755Z,39.67
2022-12-14T16:11:08.426Z,53.37
2022-12-14T16:13:41.867Z,54.40
2022-12-14T16:16:13.570Z,45.90
2022-12-14T16:18:51.267Z,37.13
2022-12-14T16:21:35.645Z,34.77
2022-12-14T16:24:24.068Z,27.97
2022-12-14T16:27:00.141Z,28.77
2022-12-14T16:29:30.338Z,20.10
2022-12-14T16:32:10.371Z,32.33
2022-12-14T16:34:37.552Z,31.27
2022-12-14T16:37:31.445Z,25.70
2022-12-14T16:39:53.373Z,24.23
2022-12-14T16:42:22.835Z,32.27
2022-12-14T16:44:54.081Z,27.73
2022-12-14T16:48:02.928Z,25.60
2022-12-14T16:53:23.272Z,24.20
2022-12-14T16:56:14.067Z,22.17
2022-12-14T16:58:41.294Z,17.03
2022-12-14T17:01:09.555Z,15.70
2022-12-14T17:03:38.526Z,17.50
2022-12-14T17:06:07.538Z,16.07
2022-12-14T17:08:34.985Z,32.50
2022-12-14T17:11:02.438Z,27.20
2022-12-14T17:13:30.256Z,33.27
2022-12-14T17:16:07.272Z,49.50
2022-12-14T17:18:41.231Z,42.53
2022-12-14T17:21:15.806Z,51.03
2022-12-14T17:23:44.660Z,59.93
2022-12-14T17:26:32.378Z,44.17
2022-12-14T17:28:59.570Z,45.97
2022-12-14T17:31:27.479Z,54.13
2022-12-14T17:33:57.575Z,31.70
2022-12-14T17:36:25.433Z,36.80
2022-12-14T17:38:52.637Z,42.03
2022-12-14T17:41:26.394Z,38.00
2022-12-14T17:43:57.732Z,42.43
2022-12-14T17:46:25.700Z,40.47
2022-12-14T17:48:53.480Z,29.20
2022-12-14T17:51:26.729Z,37.87
2022-12-14T17:53:56.237Z,43.00
2022-12-14T17:56:23.447Z,51.83
2022-12-14T17:58:51.518Z,38.73
2022-12-14T18:01:28.302Z,34.77
2022-12-14T18:03:55.768Z,26.63
2022-12-14T18:06:23.140Z,28.20
2022-12-14T18:08:50.351Z,25.03
2022-12-14T18:11:23.479Z,27.00
2022-12-14T18:13:51.905Z,18.93
2022-12-14T18:16:22.258Z,19.93
2022-12-14T18:18:49.570Z,19.67
2022-12-14T18:21:25.396Z,27.93
2022-12-14T18:23:53.116Z,26.57
2022-12-14T18:26:22.405Z,21.17
2022-12-14T18:28:51.483Z,24.33
2022-12-14T18:31:33.041Z,26.93
2022-12-14T18:34:00.742Z,28.17
2022-12-14T18:36:28.154Z,24.23
2022-12-14T18:38:55.876Z,28.13
2022-12-14T18:41:25.704Z,34.07
2022-12-14T18:43:54.371Z,24.00
2022-12-14T18:46:21.920Z,26.17
2022-12-14T18:48:49.865Z,34.30
2022-12-14T18:51:23.940Z,40.20
2022-12-14T18:53:52.316Z,27.03
2022-12-14T18:56:22.130Z,22.87
2022-12-14T18:58:49.938Z,20.80
2022-12-14T19:01:19.742Z,16.77
2022-12-14T19:03:47.541Z,15.00
2022-12-14T19:06:43.663Z,16.53
2022-12-14T19:09:05.098Z,14.93
2022-12-14T19:11:39.061Z,23.30
2022-12-14T19:14:07.016Z,19.50
2022-12-14T19:16:34.370Z,15.00
2022-12-14T19:19:01.676Z,17.83
2022-12-14T19:21:29.818Z,14.83
2022-12-14T19:23:59.479Z,15.50
2022-12-14T19:26:28.688Z,23.83
2022-12-14T19:28:56.255Z,21.67
2022-12-14T19:31:23.398Z,20.07
2022-12-14T19:33:50.599Z,28.17
2022-12-14T19:36:17.737Z,33.63
2022-12-14T19:38:45.025Z,26.20
2022-12-14T19:41:20.252Z,24.57
2022-12-14T19:43:47.821Z,21.57
2022-12-14T19:46:16.492Z,28.60
2022-12-14T19:48:44.748Z,28.47
2022-12-14T19:51:13.595Z,34.03
2022-12-14T19:53:42.942Z,30.33
2022-12-14T19:56:10.367Z,37.37
2022-12-14T19:58:47.970Z,45.97
2022-12-14T20:01:17.635Z,29.97
2022-12-14T20:03:44.942Z,26.93
2022-12-14T20:06:12.218Z,18.83
2022-12-14T20:08:39.369Z,18.43
2022-12-14T20:11:08.535Z,19.47
2022-12-14T20:13:35.703Z,23.77
2022-12-14T20:16:03.045Z,30.43
2022-12-14T20:18:31.740Z,28.03
2022-12-14T20:21:07.658Z,33.30
2022-12-14T20:23:36.551Z,36.10
2022-12-14T20:26:06.324Z,30.97
2022-12-14T20:28:33.624Z,31.37
2022-12-14T20:31:01.507Z,42.40
2022-12-14T20:33:30.851Z,44.43
2022-12-14T20:35:58.593Z,34.33
2022-12-14T20:38:25.870Z,34.30
2022-12-14T20:40:53.720Z,26.00
2022-12-14T20:43:21.273Z,43.23
2022-12-14T20:45:48.318Z,29.57
2022-12-14T20:48:15.491Z,29.93
2022-12-14T20:50:44.207Z,31.57
2022-12-14T20:53:17.570Z,35.90
2022-12-14T20:55:44.736Z,30.00
2022-12-14T20:58:11.934Z,28.33
2022-12-14T21:00:39.168Z,22.33
2022-12-14T21:03:06.475Z,24.07
2022-12-14T21:05:33.735Z,24.23
2022-12-14T21:08:00.936Z,26.40
2022-12-14T21:10:28.099Z,27.00
2022-12-14T21:12:55.432Z,22.37
2022-12-14T21:15:22.520Z,19.93
2022-12-14T21:17:49.824Z,18.70
2022-12-14T21:20:17.870Z,42.33
2022-12-14T21:22:44.944Z,37.97
2022-12-14T21:25:12.036Z,44.07
2022-12-14T21:27:39.701Z,30.10
2022-12-14T21:30:09.366Z,31.10
2022-12-14T21:32:37.747Z,39.83
2022-12-14T21:35:05.595Z,37.63
2022-12-14T21:37:32.699Z,31.57
2022-12-14T21:40:03.047Z,29.13
2022-12-14T21:42:30.266Z,20.97
2022-12-14T21:44:57.896Z,27.40
2022-12-14T21:47:29.658Z,23.87
2022-12-14T21:49:57.533Z,31.73
2022-12-14T21:52:26.792Z,26.07
2022-12-14T21:54:54.008Z,24.47
2022-12-14T21:57:43.049Z,29.80
2022-12-14T22:00:18.386Z,22.60
2022-12-14T22:02:45.687Z,29.57
2022-12-14T22:05:13.282Z,27.77
2022-12-14T22:07:40.452Z,42.47
2022-12-14T22:10:08.123Z,27.70
2022-12-14T22:12:35.436Z,26.87
2022-12-14T22:15:02.552Z,24.40
2022-12-14T22:17:29.661Z,25.97
2022-12-14T22:19:56.751Z,20.77
2022-12-14T22:22:23.821Z,19.20
2022-12-14T22:24:51.487Z,18.03
2022-12-14T22:27:19.359Z,14.30
2022-12-14T22:29:46.711Z,24.37
2022-12-14T22:32:14.895Z,13.97
2022-12-14T22:34:42.234Z,11.97
2022-12-14T22:37:09.384Z,11.67
2022-12-14T22:39:36.474Z,12.93
2022-12-14T22:42:03.976Z,10.93
2022-12-14T22:44:31.272Z,9.70
2022-12-14T22:46:58.287Z,9.60
2022-12-14T22:49:25.357Z,11.20
2022-12-14T22:51:52.426Z,8.90
2022-12-14T22:54:24.974Z,10.13
2022-12-14T22:57:07.343Z,10.40
2022-12-14T22:59:56.889Z,9.10
2022-12-14T23:02:24.212Z,8.47
2022-12-14T23:04:51.520Z,7.93
2022-12-14T23:07:18.714Z,8.90
2022-12-14T23:10:04.772Z,8.50
2022-12-14T23:12:50.231Z,8.47
2022-12-14T23:15:35.957Z,8.17
2022-12-14T23:18:23.848Z,6.07
2022-12-14T23:21:10.221Z,7.37
2022-12-14T23:24:00.784Z,6.87
2022-12-14T23:26:46.706Z,8.87
2022-12-14T23:29:32.554Z,7.67
2022-12-14T23:32:18.052Z,8.60
2022-12-14T23:35:03.744Z,7.70
2022-12-14T23:37:49.235Z,8.00
2022-12-14T23:40:34.827Z,7.00
2022-12-14T23:43:36.611Z,6.50
2022-12-14T23:46:24.532Z,7.40
2022-12-14T23:49:15.375Z,6.60
2022-12-14T23:52:02.091Z,6.57
2022-12-14T23:54:47.894Z,6.90
2022-12-14T23:57:33.496Z,6.60
